createdAt,value
2022-09-03T00:00:09.440Z,4.25
2022-09-03T00:03:06.421Z,5.43
2022-09-03T00:06:30.730Z,4.60
2022-09-03T00:09:24.789Z,4.97
2022-09-03T00:12:26.900Z,5.05
2022-09-03T00:15:12.276Z,5.28
2022-09-03T00:18:04.842Z,5.65
2022-09-03T00:20:50.955Z,5.80
2022-09-03T00:23:30.369Z,6.15
2022-09-03T00:26:12.357Z,6.47
2022-09-03T00:29:06.608Z,5.80
2022-09-03T00:31:47.605Z,6.43
2022-09-03T00:34:37.997Z,6.97
2022-09-03T00:37:05.554Z,6.80
2022-09-03T00:39:33.810Z,6.88
2022-09-03T00:42:37.523Z,7.00
2022-09-03T00:45:57.830Z,7.22
2022-09-03T00:48:48.664Z,7.35
2022-09-03T00:51:33.944Z,6.22
2022-09-03T00:55:01.512Z,7.00
2022-09-03T00:58:13.877Z,6.18
2022-09-03T01:00:45.629Z,6.10
2022-09-03T01:04:06.509Z,6.70
2022-09-03T01:07:10.421Z,5.15
2022-09-03T01:10:16.381Z,5.20
2022-09-03T01:13:30.000Z,5.18
2022-09-03T01:16:39.847Z,5.35
2022-09-03T01:20:02.959Z,5.63
2022-09-03T01:23:14.379Z,5.22
2022-09-03T01:26:35.408Z,5.30
2022-09-03T01:29:35.264Z,5.25
2022-09-03T01:32:34.797Z,5.15
2022-09-03T01:35:47.486Z,5.90
2022-09-03T01:38:47.223Z,5.85
2022-09-03T01:42:21.304Z,5.68
2022-09-03T01:45:22.569Z,5.97
2022-09-03T01:48:42.212Z,5.70
2022-09-03T01:51:23.169Z,5.32
2022-09-03T01:54:22.013Z,6.10
2022-09-03T01:57:46.041Z,5.63
2022-09-03T02:00:20.640Z,5.28
2022-09-03T02:02:54.244Z,5.82
2022-09-03T02:05:29.201Z,6.13
2022-09-03T02:08:07.350Z,6.50
2022-09-03T02:10:53.685Z,6.30
2022-09-03T02:13:51.140Z,6.35
2022-09-03T02:16:28.384Z,7.63
2022-09-03T02:19:03.349Z,6.97
2022-09-03T02:21:40.794Z,6.30
2022-09-03T02:24:09.439Z,6.47
2022-09-03T02:26:37.059Z,7.40
2022-09-03T02:29:05.495Z,6.22
2022-09-03T02:31:33.809Z,7.25
2022-09-03T02:34:01.259Z,6.65
2022-09-03T02:36:46.555Z,6.32
2022-09-03T02:39:16.707Z,6.80
2022-09-03T02:41:44.833Z,5.72
2022-09-03T02:44:33.157Z,6.20
2022-09-03T02:47:06.924Z,6.65
2022-09-03T02:49:35.349Z,6.78
2022-09-03T02:52:09.701Z,7.50
2022-09-03T02:54:40.041Z,7.57
2022-09-03T02:57:16.089Z,7.75
2022-09-03T02:59:51.122Z,7.30
2022-09-03T03:02:18.540Z,7.60
2022-09-03T03:04:45.940Z,8.10
2022-09-03T03:07:14.107Z,8.18
2022-09-03T03:09:42.416Z,6.90
2022-09-03T03:12:10.370Z,7.88
2022-09-03T03:14:37.782Z,7.25
2022-09-03T03:17:05.729Z,7.20
2022-09-03T03:19:33.157Z,7.20
2022-09-03T03:22:00.789Z,6.32
2022-09-03T03:24:28.507Z,6.72
2022-09-03T03:26:59.809Z,8.15
2022-09-03T03:29:27.936Z,6.93
2022-09-03T03:31:55.235Z,7.88
2022-09-03T03:34:23.369Z,8.23
2022-09-03T03:36:50.764Z,7.13
2022-09-03T03:39:18.300Z,7.72
2022-09-03T03:41:45.663Z,7.35
2022-09-03T03:44:12.977Z,7.38
2022-09-03T03:46:41.929Z,7.90
2022-09-03T03:49:11.100Z,7.28
2022-09-03T03:51:39.313Z,7.90
2022-09-03T03:54:06.933Z,6.65
2022-09-03T03:56:35.478Z,7.63
2022-09-03T03:59:03.611Z,6.97
2022-09-03T04:01:31.116Z,7.10
2022-09-03T04:04:01.807Z,6.30
2022-09-03T04:06:29.592Z,6.35
2022-09-03T04:08:57.031Z,6.15
2022-09-03T04:11:27.058Z,5.93
2022-09-03T04:13:54.897Z,6.63
2022-09-03T04:16:27.416Z,6.95
2022-09-03T04:18:56.800Z,6.43
2022-09-03T04:21:31.551Z,5.95
2022-09-03T04:23:59.473Z,5.93
2022-09-03T04:26:34.274Z,5.85
2022-09-03T04:29:07.223Z,6.32
2022-09-03T04:31:38.752Z,5.47
2022-09-03T04:34:07.418Z,5.63
2022-09-03T04:36:35.177Z,5.70
2022-09-03T04:39:02.863Z,6.15
2022-09-03T04:41:31.894Z,5.45
2022-09-03T04:44:00.394Z,5.65
2022-09-03T04:46:35.367Z,5.85
2022-09-03T04:49:03.018Z,5.35
2022-09-03T04:51:31.809Z,6.43
2022-09-03T04:54:02.542Z,5.40
2022-09-03T04:56:35.112Z,5.85
2022-09-03T04:59:09.586Z,6.05
2022-09-03T05:01:40.586Z,5.93
2022-09-03T05:04:08.988Z,5.72
2022-09-03T05:06:37.657Z,6.30
2022-09-03T05:09:06.010Z,5.35
2022-09-03T05:11:36.272Z,6.20
2022-09-03T05:14:05.873Z,5.43
2022-09-03T05:16:33.379Z,5.57
2022-09-03T05:19:01.435Z,5.22
2022-09-03T05:21:30.732Z,4.68
2022-09-03T05:24:01.860Z,5.75
2022-09-03T05:26:37.129Z,5.47
2022-09-03T05:29:07.813Z,5.55
2022-09-03T05:31:39.575Z,6.38
2022-09-03T05:34:07.754Z,5.65
2022-09-03T05:36:38.313Z,4.93
2022-09-03T05:41:34.465Z,4.85
2022-09-03T05:44:02.579Z,6.28
2022-09-03T05:46:35.077Z,5.60
2022-09-03T05:49:06.438Z,5.88
2022-09-03T05:51:36.693Z,5.30
2022-09-03T05:54:04.266Z,5.18
2022-09-03T05:56:35.697Z,5.35
2022-09-03T05:59:09.367Z,6.25
2022-09-03T06:01:50.937Z,5.60
2022-09-03T06:04:20.393Z,5.55
2022-09-03T06:06:49.030Z,6.35
2022-09-03T06:09:23.288Z,5.75
2022-09-03T06:11:54.343Z,4.70
2022-09-03T06:14:25.244Z,5.20
2022-09-03T06:16:53.089Z,5.72
2022-09-03T06:19:20.999Z,5.47
2022-09-03T06:21:48.891Z,5.55
2022-09-03T06:24:26.472Z,5.25
2022-09-03T06:26:59.346Z,4.75
2022-09-03T06:29:27.644Z,5.32
2022-09-03T06:31:55.085Z,5.57
2022-09-03T06:34:25.561Z,4.70
2022-09-03T06:36:54.554Z,5.07
2022-09-03T06:39:22.421Z,4.68
2022-09-03T06:41:51.847Z,4.18
2022-09-03T06:44:19.320Z,4.75
2022-09-03T06:46:48.502Z,4.30
2022-09-03T06:49:15.853Z,4.53
2022-09-03T06:51:44.075Z,3.53
2022-09-03T06:54:13.262Z,4.00
2022-09-03T06:56:41.985Z,3.72
2022-09-03T06:59:15.224Z,3.10
2022-09-03T07:01:46.159Z,4.28
2022-09-03T07:04:20.275Z,3.08
2022-09-03T07:06:47.809Z,3.53
2022-09-03T07:09:18.150Z,3.35
2022-09-03T07:11:49.388Z,3.63
2022-09-03T07:14:22.305Z,3.42
2022-09-03T07:16:50.688Z,3.60
2022-09-03T07:19:18.348Z,3.45
2022-09-03T07:21:49.988Z,3.47
2022-09-03T07:24:22.796Z,3.00
2022-09-03T07:26:50.218Z,3.95
2022-09-03T07:29:21.902Z,3.60
2022-09-03T07:31:51.934Z,3.50
2022-09-03T07:34:22.125Z,3.13
2022-09-03T07:36:51.384Z,3.42
2022-09-03T07:39:19.838Z,3.27
2022-09-03T07:41:47.769Z,3.47
2022-09-03T07:44:19.752Z,3.40
2022-09-03T07:46:51.944Z,3.42
2022-09-03T07:49:21.732Z,3.50
2022-09-03T07:51:54.305Z,4.27
2022-09-03T07:54:23.572Z,3.10
2022-09-03T07:56:51.394Z,3.55
2022-09-03T07:59:19.250Z,3.65
2022-09-03T08:01:46.572Z,3.00
2022-09-03T08:04:14.137Z,3.45
2022-09-03T08:06:42.286Z,3.63
2022-09-03T08:09:13.930Z,3.80
2022-09-03T08:11:43.761Z,3.67
2022-09-03T08:14:15.435Z,3.58
2022-09-03T08:16:48.081Z,3.47
2022-09-03T08:19:18.424Z,4.18
2022-09-03T08:21:46.149Z,3.58
2022-09-03T08:24:20.916Z,3.17
2022-09-03T08:26:52.132Z,3.33
2022-09-03T08:29:21.467Z,3.03
2022-09-03T08:31:49.295Z,3.30
2022-09-03T08:34:17.803Z,3.08
2022-09-03T08:36:47.273Z,3.25
2022-09-03T08:39:14.776Z,3.03
2022-09-03T08:42:29.147Z,3.88
2022-09-03T08:45:06.630Z,3.40
2022-09-03T08:47:48.290Z,2.40
2022-09-03T08:50:36.044Z,3.33
2022-09-03T08:53:55.965Z,3.55
2022-09-03T08:56:33.026Z,2.70
2022-09-03T08:59:02.200Z,2.80
2022-09-03T09:02:51.039Z,3.22
2022-09-03T09:05:47.064Z,2.90
2022-09-03T09:09:03.054Z,2.78
2022-09-03T09:12:15.963Z,2.10
2022-09-03T09:15:43.237Z,2.78
2022-09-03T09:19:03.352Z,2.42
2022-09-03T09:22:41.228Z,1.83
2022-09-03T09:25:20.528Z,1.90
2022-09-03T09:28:36.156Z,2.17
2022-09-03T09:31:11.617Z,2.10
2022-09-03T09:33:39.384Z,2.20
2022-09-03T09:36:15.368Z,2.58
2022-09-03T09:38:45.556Z,2.60
2022-09-03T09:41:23.369Z,3.15
2022-09-03T09:44:05.704Z,3.10
2022-09-03T09:46:43.124Z,2.63
2022-09-03T09:49:58.602Z,3.45
2022-09-03T09:52:30.273Z,2.60
2022-09-03T09:55:19.190Z,2.75
2022-09-03T09:57:47.331Z,3.20
2022-09-03T10:00:18.781Z,3.08
2022-09-03T10:02:54.755Z,3.00
2022-09-03T10:05:36.795Z,3.47
2022-09-03T10:08:22.023Z,2.60
2022-09-03T10:10:51.832Z,3.00
2022-09-03T10:13:30.789Z,2.63
2022-09-03T10:16:43.315Z,2.70
2022-09-03T10:19:26.216Z,2.03
2022-09-03T10:22:18.862Z,2.40
2022-09-03T10:25:02.888Z,2.15
2022-09-03T10:27:32.139Z,1.38
2022-09-03T10:30:00.730Z,1.55
2022-09-03T10:33:07.116Z,1.55
2022-09-03T10:35:52.716Z,2.17
2022-09-03T10:38:34.591Z,2.45
2022-09-03T10:41:55.832Z,2.72
2022-09-03T10:44:43.681Z,3.55
2022-09-03T10:48:17.309Z,2.58
2022-09-03T10:51:49.488Z,2.53
2022-09-03T10:55:03.939Z,2.15
2022-09-03T10:58:38.338Z,2.00
2022-09-03T11:02:15.290Z,1.88
2022-09-03T11:05:30.529Z,1.83
2022-09-03T11:08:21.957Z,1.30
2022-09-03T11:11:08.764Z,1.63
2022-09-03T11:14:12.249Z,1.73
2022-09-03T11:16:54.245Z,1.50
2022-09-03T11:20:06.519Z,2.25
2022-09-03T11:22:35.000Z,1.80
2022-09-03T11:25:05.589Z,1.80
2022-09-03T11:28:12.780Z,1.80
2022-09-03T11:31:52.945Z,2.13
2022-09-03T11:34:32.266Z,1.88
2022-09-03T11:37:26.280Z,2.05
2022-09-03T11:40:19.368Z,2.05
2022-09-03T11:42:47.385Z,1.70
2022-09-03T11:45:30.174Z,1.98
2022-09-03T11:47:57.781Z,1.52
2022-09-03T11:50:34.543Z,1.45
2022-09-03T11:53:15.118Z,1.05
2022-09-03T11:56:05.198Z,1.50
2022-09-03T11:58:42.960Z,1.60
2022-09-03T12:01:20.748Z,1.50
2022-09-03T12:04:09.756Z,1.98
2022-09-03T12:07:40.595Z,1.83
2022-09-03T12:10:41.751Z,1.63
2022-09-03T12:14:21.330Z,1.63
2022-09-03T12:18:31.967Z,1.38
2022-09-03T12:23:51.035Z,0.90
2022-09-03T12:26:27.552Z,1.48
2022-09-03T12:29:00.872Z,1.55
2022-09-03T12:31:46.760Z,1.40
2022-09-03T12:34:18.636Z,1.63
2022-09-03T12:36:52.148Z,1.50
2022-09-03T12:42:30.880Z,1.05
2022-09-03T12:45:12.728Z,2.05
2022-09-03T12:47:41.994Z,1.48
2022-09-03T12:50:17.075Z,1.30
2022-09-03T12:52:53.782Z,1.27
2022-09-03T12:55:36.830Z,1.50
2022-09-03T12:58:54.342Z,1.40
2022-09-03T13:01:33.456Z,1.00
2022-09-03T13:04:15.269Z,1.00
2022-09-03T13:07:08.275Z,1.10
2022-09-03T13:09:39.889Z,1.20
2022-09-03T13:12:07.856Z,1.30
2022-09-03T13:14:48.273Z,1.00
2022-09-03T13:18:01.983Z,0.90
2022-09-03T13:21:32.589Z,1.17
2022-09-03T13:25:01.983Z,1.60
2022-09-03T13:28:18.956Z,1.45
2022-09-03T13:31:21.662Z,1.35
2022-09-03T13:34:12.928Z,0.90
2022-09-03T13:37:10.143Z,1.13
2022-09-03T13:40:36.249Z,1.30
2022-09-03T13:43:43.536Z,1.10
2022-09-03T13:47:02.577Z,1.17
2022-09-03T13:50:09.206Z,1.13
2022-09-03T13:53:10.504Z,1.55
2022-09-03T13:55:55.828Z,1.40
2022-09-03T13:58:48.920Z,1.38
2022-09-03T14:01:46.074Z,1.40
2022-09-03T14:04:29.169Z,1.77
2022-09-03T14:07:15.756Z,1.52
2022-09-03T14:10:46.541Z,1.65
2022-09-03T14:13:59.490Z,1.30
2022-09-03T14:16:39.802Z,1.33
2022-09-03T14:20:00.540Z,1.38
2022-09-03T14:23:08.785Z,1.25
2022-09-03T14:25:37.108Z,1.40
2022-09-03T14:28:44.435Z,1.45
2022-09-03T14:32:03.445Z,1.40
2022-09-03T14:35:52.839Z,1.10
2022-09-03T14:39:24.566Z,1.55
2022-09-03T14:42:07.823Z,1.30
2022-09-03T14:45:13.367Z,1.45
2022-09-03T14:48:58.248Z,1.50
2022-09-03T14:52:39.423Z,1.60
2022-09-03T14:55:40.692Z,1.45
2022-09-03T14:58:54.059Z,1.30
2022-09-03T15:01:39.451Z,1.73
2022-09-03T15:04:50.259Z,1.40
2022-09-03T15:10:56.397Z,1.60
2022-09-03T15:14:18.679Z,1.60
2022-09-03T15:17:24.664Z,1.77
2022-09-03T15:20:53.359Z,1.85
2022-09-03T15:23:59.916Z,2.03
2022-09-03T15:27:19.298Z,2.10
2022-09-03T15:30:13.191Z,1.85
2022-09-03T15:33:06.855Z,1.90
2022-09-03T15:36:14.996Z,1.70
2022-09-03T15:39:09.322Z,1.70
2022-09-03T15:42:10.347Z,1.60
2022-09-03T15:44:57.086Z,1.77
2022-09-03T15:47:50.719Z,1.40
2022-09-03T15:50:58.942Z,1.80
2022-09-03T15:54:16.386Z,2.17
2022-09-03T15:57:15.591Z,2.45
2022-09-03T16:00:13.245Z,2.40
2022-09-03T16:03:20.388Z,2.30
2022-09-03T16:06:17.237Z,2.40
2022-09-03T16:09:03.223Z,1.95
2022-09-03T16:12:07.424Z,2.03
2022-09-03T16:15:00.864Z,1.90
2022-09-03T16:18:37.376Z,2.03
2022-09-03T16:21:43.505Z,1.75
2022-09-03T16:25:07.408Z,2.10
2022-09-03T16:28:19.743Z,2.40
2022-09-03T16:31:57.273Z,2.10
2022-09-03T16:35:44.020Z,2.38
2022-09-03T16:38:46.697Z,2.10
2022-09-03T16:41:58.316Z,2.25
2022-09-03T16:45:20.301Z,2.53
2022-09-03T16:48:50.813Z,2.30
2022-09-03T16:55:14.737Z,2.90
2022-09-03T16:58:26.961Z,2.83
2022-09-03T17:02:23.687Z,2.17
2022-09-03T17:05:12.501Z,2.50
2022-09-03T17:08:42.561Z,2.97
2022-09-03T17:12:04.833Z,1.63
2022-09-03T17:15:16.843Z,1.85
2022-09-03T17:18:49.889Z,2.42
2022-09-03T17:22:20.675Z,1.85
2022-09-03T17:25:05.789Z,2.63
2022-09-03T17:28:22.691Z,2.10
2022-09-03T17:31:37.386Z,1.90
2022-09-03T17:35:00.881Z,2.10
2022-09-03T17:38:50.821Z,2.00
2022-09-03T17:42:12.558Z,2.83
2022-09-03T17:45:35.214Z,2.05
2022-09-03T17:48:42.186Z,2.03
2022-09-03T17:51:50.442Z,1.73
2022-09-03T17:54:37.184Z,1.73
2022-09-03T17:57:38.240Z,1.58
2022-09-03T18:00:21.992Z,1.70
2022-09-03T18:03:49.688Z,1.73
2022-09-03T18:06:41.802Z,1.77
2022-09-03T18:09:57.412Z,4.60
2022-09-03T18:13:55.524Z,3.30
2022-09-03T18:16:39.624Z,2.60
2022-09-03T18:19:58.543Z,2.53
2022-09-03T18:23:03.070Z,2.53
2022-09-03T18:25:52.270Z,2.60
2022-09-03T18:29:18.165Z,3.30
2022-09-03T18:32:04.173Z,2.70
2022-09-03T18:34:54.992Z,2.60
2022-09-03T18:37:46.468Z,3.03
2022-09-03T18:40:53.840Z,2.38
2022-09-03T18:44:22.158Z,2.13
2022-09-03T18:48:27.067Z,2.70
2022-09-03T18:51:52.451Z,2.33
2022-09-03T18:55:18.303Z,2.30
2022-09-03T18:59:01.117Z,2.47
2022-09-03T19:01:59.805Z,2.05
2022-09-03T19:05:25.628Z,1.90
2022-09-03T19:08:38.853Z,2.67
2022-09-03T19:12:27.716Z,2.20
2022-09-03T19:15:38.982Z,2.00
2022-09-03T19:19:42.196Z,2.42
2022-09-03T19:22:33.067Z,2.20
2022-09-03T19:25:33.940Z,2.67
2022-09-03T19:28:42.656Z,2.58
2022-09-03T19:32:06.436Z,2.60
2022-09-03T19:35:23.557Z,2.85
2022-09-03T19:39:24.351Z,1.83
2022-09-03T19:46:10.440Z,2.30
2022-09-03T19:49:43.869Z,2.25
2022-09-03T19:53:23.371Z,2.35
2022-09-03T19:56:18.360Z,2.53
2022-09-03T19:59:43.376Z,2.35
2022-09-03T20:02:29.810Z,2.38
2022-09-03T20:05:24.992Z,2.67
2022-09-03T20:08:14.717Z,2.65
2022-09-03T20:10:48.893Z,2.60
2022-09-03T20:13:20.687Z,2.58
2022-09-03T20:16:14.602Z,2.97
2022-09-03T20:19:45.636Z,3.47
2022-09-03T20:22:44.357Z,2.85
2022-09-03T20:26:11.416Z,2.80
2022-09-03T20:29:34.092Z,2.88
2022-09-03T20:32:41.715Z,2.60
2022-09-03T20:35:53.455Z,2.22
2022-09-03T20:39:03.835Z,3.00
2022-09-03T20:42:14.366Z,2.72
2022-09-03T20:45:32.683Z,2.97
2022-09-03T20:48:43.318Z,2.58
2022-09-03T20:51:46.087Z,2.55
2022-09-03T20:54:42.578Z,2.45
2022-09-03T20:58:11.393Z,3.00
2022-09-03T21:01:16.544Z,2.90
2022-09-03T21:04:32.417Z,3.08
2022-09-03T21:07:43.167Z,2.50
2022-09-03T21:10:48.013Z,2.90
2022-09-03T21:13:52.728Z,3.38
2022-09-03T21:17:00.179Z,2.90
2022-09-03T21:20:28.604Z,3.00
2022-09-03T21:23:38.276Z,2.55
2022-09-03T21:26:33.924Z,3.43
2022-09-03T21:29:30.877Z,2.97
2022-09-03T21:32:29.699Z,2.58
2022-09-03T21:35:42.832Z,3.67
2022-09-03T21:38:31.388Z,2.70
2022-09-03T21:41:34.724Z,3.88
2022-09-03T21:44:32.918Z,3.50
2022-09-03T21:47:10.545Z,3.55
2022-09-03T21:49:57.447Z,3.20
2022-09-03T21:53:02.909Z,3.78
2022-09-03T21:56:07.865Z,3.53
2022-09-03T21:59:22.469Z,3.63
2022-09-03T22:02:28.802Z,3.53
2022-09-03T22:04:58.665Z,3.85
2022-09-03T22:08:23.164Z,3.40
2022-09-03T22:12:03.701Z,3.70
2022-09-03T22:14:47.935Z,4.07
2022-09-03T22:17:56.923Z,3.88
2022-09-03T22:20:28.629Z,3.28
2022-09-03T22:23:24.804Z,3.50
2022-09-03T22:26:14.511Z,3.25
2022-09-03T22:29:24.504Z,3.23
2022-09-03T22:32:25.363Z,2.65
2022-09-03T22:35:33.811Z,3.47
2022-09-03T22:38:33.074Z,3.03
2022-09-03T22:41:45.935Z,3.83
2022-09-03T22:44:50.961Z,3.65
2022-09-03T22:48:06.389Z,4.05
2022-09-03T22:50:59.288Z,4.68
2022-09-03T22:54:31.968Z,3.83
2022-09-03T22:57:01.347Z,3.20
2022-09-03T22:59:41.512Z,3.53
2022-09-03T23:02:26.420Z,3.13
2022-09-03T23:05:28.083Z,2.97
2022-09-03T23:08:33.732Z,3.30
2022-09-03T23:11:29.971Z,3.15
2022-09-03T23:14:12.389Z,3.50
2022-09-03T23:16:54.354Z,3.42
2022-09-03T23:19:40.878Z,3.70
2022-09-03T23:22:41.713Z,3.47
2022-09-03T23:25:25.643Z,3.85
2022-09-03T23:28:22.061Z,3.83
2022-09-03T23:30:49.756Z,4.35
2022-09-03T23:33:17.166Z,4.22
2022-09-03T23:37:32.415Z,4.53
2022-09-03T23:40:15.284Z,4.70
2022-09-03T23:43:48.205Z,4.95
2022-09-03T23:47:03.649Z,5.95
2022-09-03T23:50:11.968Z,5.78
2022-09-03T23:53:53.619Z,6.00
2022-09-03T23:57:13.032Z,5.95
